sensor_id;sensor_type;location;lat;lon;timestamp;temperature;humidity
12115;DHT22;6121;49.810;6.418;2022-09-03T00:00:11;17.70;89.00
12115;DHT22;6121;49.810;6.418;2022-09-03T00:02:13;17.60;89.00
12115;DHT22;6121;49.810;6.418;2022-09-03T00:04:50;17.70;89.30
12115;DHT22;6121;49.810;6.418;2022-09-03T00:07:29;17.70;90.00
12115;DHT22;6121;49.810;6.418;2022-09-03T00:10:01;17.70;90.30
12115;DHT22;6121;49.810;6.418;2022-09-03T00:12:30;17.70;90.50
12115;DHT22;6121;49.810;6.418;2022-09-03T00:15:05;17.80;90.00
12115;DHT22;6121;49.810;6.418;2022-09-03T00:17:38;17.60;90.30
12115;DHT22;6121;49.810;6.418;2022-09-03T00:22:56;17.50;90.30
12115;DHT22;6121;49.810;6.418;2022-09-03T00:25:28;17.60;90.30
12115;DHT22;6121;49.810;6.418;2022-09-03T00:28:01;17.80;89.70
12115;DHT22;6121;49.810;6.418;2022-09-03T00:30:29;17.90;88.90
12115;DHT22;6121;49.810;6.418;2022-09-03T00:35:47;17.80;88.60
12115;DHT22;6121;49.810;6.418;2022-09-03T00:38:14;17.80;88.60
12115;DHT22;6121;49.810;6.418;2022-09-03T00:40:55;17.90;88.90
12115;DHT22;6121;49.810;6.418;2022-09-03T00:54:05;17.90;91.20
12115;DHT22;6121;49.810;6.418;2022-09-03T00:57:00;17.70;91.10
12115;DHT22;6121;49.810;6.418;2022-09-03T00:59:56;17.90;90.60
12115;DHT22;6121;49.810;6.418;2022-09-03T01:05:28;17.70;90.60
12115;DHT22;6121;49.810;6.418;2022-09-03T01:11:03;17.60;90.90
12115;DHT22;6121;49.810;6.418;2022-09-03T01:16:47;17.80;90.60
12115;DHT22;6121;49.810;6.418;2022-09-03T01:20:22;17.70;90.90
12115;DHT22;6121;49.810;6.418;2022-09-03T01:30:37;17.70;91.40
12115;DHT22;6121;49.810;6.418;2022-09-03T01:35:43;17.80;91.20
12115;DHT22;6121;49.810;6.418;2022-09-03T01:41:07;17.70;90.80
12115;DHT22;6121;49.810;6.418;2022-09-03T01:46:45;17.80;91.00
12115;DHT22;6121;49.810;6.418;2022-09-03T01:49:36;17.80;91.70
12115;DHT22;6121;49.810;6.418;2022-09-03T01:52:23;17.70;91.80
12115;DHT22;6121;49.810;6.418;2022-09-03T02:00:12;17.60;91.90
12115;DHT22;6121;49.810;6.418;2022-09-03T02:02:40;17.70;92.10
12115;DHT22;6121;49.810;6.418;2022-09-03T02:05:15;17.80;92.20
12115;DHT22;6121;49.810;6.418;2022-09-03T02:10:20;17.60;92.40
12115;DHT22;6121;49.810;6.418;2022-09-03T02:13:01;17.50;92.60
12115;DHT22;6121;49.810;6.418;2022-09-03T02:15:29;17.40;92.80
12115;DHT22;6121;49.810;6.418;2022-09-03T02:18:00;17.50;92.90
12115;DHT22;6121;49.810;6.418;2022-09-03T02:20:28;17.50;92.80
12115;DHT22;6121;49.810;6.418;2022-09-03T02:22:55;17.50;93.10
12115;DHT22;6121;49.810;6.418;2022-09-03T02:25:25;17.50;93.20
12115;DHT22;6121;49.810;6.418;2022-09-03T02:27:54;17.50;93.20
12115;DHT22;6121;49.810;6.418;2022-09-03T02:30:19;17.70;93.00
12115;DHT22;6121;49.810;6.418;2022-09-03T02:32:45;17.70;93.20
12115;DHT22;6121;49.810;6.418;2022-09-03T02:35:12;17.70;93.20
12115;DHT22;6121;49.810;6.418;2022-09-03T02:37:37;17.60;93.50
12115;DHT22;6121;49.810;6.418;2022-09-03T02:40:03;17.60;93.60
12115;DHT22;6121;49.810;6.418;2022-09-03T02:42:34;17.70;93.70
12115;DHT22;6121;49.810;6.418;2022-09-03T02:45:13;17.60;93.90
12115;DHT22;6121;49.810;6.418;2022-09-03T02:47:44;17.60;94.00
12115;DHT22;6121;49.810;6.418;2022-09-03T02:50:12;17.60;93.90
12115;DHT22;6121;49.810;6.418;2022-09-03T02:52:37;17.60;93.70
12115;DHT22;6121;49.810;6.418;2022-09-03T02:55:03;17.60;93.60
12115;DHT22;6121;49.810;6.418;2022-09-03T02:57:29;17.70;93.50
12115;DHT22;6121;49.810;6.418;2022-09-03T02:59:55;17.80;93.50
12115;DHT22;6121;49.810;6.418;2022-09-03T03:02:20;17.80;93.80
12115;DHT22;6121;49.810;6.418;2022-09-03T03:04:46;17.70;94.20
12115;DHT22;6121;49.810;6.418;2022-09-03T03:07:11;17.70;94.50
12115;DHT22;6121;49.810;6.418;2022-09-03T03:09:37;17.80;95.30
12115;DHT22;6121;49.810;6.418;2022-09-03T03:12:03;17.70;96.40
12115;DHT22;6121;49.810;6.418;2022-09-03T03:14:28;17.70;96.70
12115;DHT22;6121;49.810;6.418;2022-09-03T03:16:54;17.70;97.30
12115;DHT22;6121;49.810;6.418;2022-09-03T03:19:19;17.50;98.30
12115;DHT22;6121;49.810;6.418;2022-09-03T03:21:45;17.40;98.60
12115;DHT22;6121;49.810;6.418;2022-09-03T03:24:10;17.50;99.40
12115;DHT22;6121;49.810;6.418;2022-09-03T03:26:36;17.30;99.90
12115;DHT22;6121;49.810;6.418;2022-09-03T03:29:02;17.20;99.90
12115;DHT22;6121;49.810;6.418;2022-09-03T03:31:32;17.40;99.90
12115;DHT22;6121;49.810;6.418;2022-09-03T03:34:00;17.30;99.90
12115;DHT22;6121;49.810;6.418;2022-09-03T03:36:28;17.30;99.90
12115;DHT22;6121;49.810;6.418;2022-09-03T03:38:56;17.30;99.90
12115;DHT22;6121;49.810;6.418;2022-09-03T03:41:24;17.30;99.90
12115;DHT22;6121;49.810;6.418;2022-09-03T03:43:55;17.40;99.90
12115;DHT22;6121;49.810;6.418;2022-09-03T03:46:21;17.10;99.90
12115;DHT22;6121;49.810;6.418;2022-09-03T03:48:48;17.00;99.90
12115;DHT22;6121;49.810;6.418;2022-09-03T03:51:15;17.00;99.90
12115;DHT22;6121;49.810;6.418;2022-09-03T03:53:41;17.20;99.90
12115;DHT22;6121;49.810;6.418;2022-09-03T03:56:09;17.10;99.90
12115;DHT22;6121;49.810;6.418;2022-09-03T03:58:35;17.00;99.90
12115;DHT22;6121;49.810;6.418;2022-09-03T04:01:10;17.10;99.90
12115;DHT22;6121;49.810;6.418;2022-09-03T04:03:37;17.00;99.90
12115;DHT22;6121;49.810;6.418;2022-09-03T04:06:04;16.90;99.90
12115;DHT22;6121;49.810;6.418;2022-09-03T04:08:32;16.80;99.90
12115;DHT22;6121;49.810;6.418;2022-09-03T04:11:00;16.80;99.90
12115;DHT22;6121;49.810;6.418;2022-09-03T04:13:34;16.80;99.90
12115;DHT22;6121;49.810;6.418;2022-09-03T04:16:14;16.90;99.90
12115;DHT22;6121;49.810;6.418;2022-09-03T04:18:40;16.90;99.90
12115;DHT22;6121;49.810;6.418;2022-09-03T04:21:08;16.70;99.90
12115;DHT22;6121;49.810;6.418;2022-09-03T04:23:37;16.60;99.90
12115;DHT22;6121;49.810;6.418;2022-09-03T04:26:04;16.60;99.90
12115;DHT22;6121;49.810;6.418;2022-09-03T04:28:30;16.50;99.90
12115;DHT22;6121;49.810;6.418;2022-09-03T04:31:00;16.60;99.90
12115;DHT22;6121;49.810;6.418;2022-09-03T04:33:26;16.50;99.90
12115;DHT22;6121;49.810;6.418;2022-09-03T04:35:51;16.40;99.90
12115;DHT22;6121;49.810;6.418;2022-09-03T04:38:17;16.50;99.90
12115;DHT22;6121;49.810;6.418;2022-09-03T04:40:43;16.50;99.90
12115;DHT22;6121;49.810;6.418;2022-09-03T04:43:08;16.50;99.90
12115;DHT22;6121;49.810;6.418;2022-09-03T04:45:34;16.50;99.90
12115;DHT22;6121;49.810;6.418;2022-09-03T04:48:01;16.50;99.90
12115;DHT22;6121;49.810;6.418;2022-09-03T04:50:28;16.40;99.90
12115;DHT22;6121;49.810;6.418;2022-09-03T04:52:54;16.40;99.90
12115;DHT22;6121;49.810;6.418;2022-09-03T04:55:21;16.40;99.90
12115;DHT22;6121;49.810;6.418;2022-09-03T04:57:47;16.50;99.90
12115;DHT22;6121;49.810;6.418;2022-09-03T05:00:13;16.60;99.90
12115;DHT22;6121;49.810;6.418;2022-09-03T05:02:45;16.50;99.90
12115;DHT22;6121;49.810;6.418;2022-09-03T05:05:16;16.30;99.90
12115;DHT22;6121;49.810;6.418;2022-09-03T05:07:42;16.40;99.90
12115;DHT22;6121;49.810;6.418;2022-09-03T05:10:11;16.60;99.90
12115;DHT22;6121;49.810;6.418;2022-09-03T05:12:38;16.70;99.90
12115;DHT22;6121;49.810;6.418;2022-09-03T05:15:04;16.60;99.90
12115;DHT22;6121;49.810;6.418;2022-09-03T05:17:30;16.60;99.90
12115;DHT22;6121;49.810;6.418;2022-09-03T05:19:56;16.70;99.90
12115;DHT22;6121;49.810;6.418;2022-09-03T05:22:22;16.50;99.90
12115;DHT22;6121;49.810;6.418;2022-09-03T05:24:48;16.60;99.90
12115;DHT22;6121;49.810;6.418;2022-09-03T05:27:15;16.50;99.90
12115;DHT22;6121;49.810;6.418;2022-09-03T05:29:43;16.70;99.90
12115;DHT22;6121;49.810;6.418;2022-09-03T05:32:10;16.70;99.90
12115;DHT22;6121;49.810;6.418;2022-09-03T05:34:37;16.80;99.90
12115;DHT22;6121;49.810;6.418;2022-09-03T05:37:04;16.50;99.90
12115;DHT22;6121;49.810;6.418;2022-09-03T05:39:29;16.60;99.90
12115;DHT22;6121;49.810;6.418;2022-09-03T05:41:55;16.60;99.90
12115;DHT22;6121;49.810;6.418;2022-09-03T05:44:21;16.60;99.90
12115;DHT22;6121;49.810;6.418;2022-09-03T05:46:47;16.80;99.90
12115;DHT22;6121;49.810;6.418;2022-09-03T05:49:14;16.70;99.90
12115;DHT22;6121;49.810;6.418;2022-09-03T05:51:39;16.60;99.90
12115;DHT22;6121;49.810;6.418;2022-09-03T05:54:05;16.60;99.90
12115;DHT22;6121;49.810;6.418;2022-09-03T05:56:33;16.60;99.90
12115;DHT22;6121;49.810;6.418;2022-09-03T05:59:02;16.70;99.90
12115;DHT22;6121;49.810;6.418;2022-09-03T06:01:32;16.60;99.90
12115;DHT22;6121;49.810;6.418;2022-09-03T06:04:03;16.60;99.90
12115;DHT22;6121;49.810;6.418;2022-09-03T06:06:31;16.80;99.90
12115;DHT22;6121;49.810;6.418;2022-09-03T06:08:59;17.00;99.90
12115;DHT22;6121;49.810;6.418;2022-09-03T06:11:27;17.10;99.90
12115;DHT22;6121;49.810;6.418;2022-09-03T06:13:58;17.10;99.90
12115;DHT22;6121;49.810;6.418;2022-09-03T06:16:27;17.20;99.90
12115;DHT22;6121;49.810;6.418;2022-09-03T06:18:54;16.90;99.90
12115;DHT22;6121;49.810;6.418;2022-09-03T06:21:20;16.90;99.90
12115;DHT22;6121;49.810;6.418;2022-09-03T06:23:50;16.80;99.90
12115;DHT22;6121;49.810;6.418;2022-09-03T06:26:17;17.00;99.90
12115;DHT22;6121;49.810;6.418;2022-09-03T06:28:45;17.30;99.90
12115;DHT22;6121;49.810;6.418;2022-09-03T06:31:14;17.40;99.90
12115;DHT22;6121;49.810;6.418;2022-09-03T06:33:41;17.40;99.90
12115;DHT22;6121;49.810;6.418;2022-09-03T06:36:12;17.30;99.90
12115;DHT22;6121;49.810;6.418;2022-09-03T06:38:39;17.30;99.90
12115;DHT22;6121;49.810;6.418;2022-09-03T06:41:09;17.40;99.90
12115;DHT22;6121;49.810;6.418;2022-09-03T06:43:37;17.40;99.90
12115;DHT22;6121;49.810;6.418;2022-09-03T06:46:09;17.60;99.90
12115;DHT22;6121;49.810;6.418;2022-09-03T06:48:36;17.90;99.90
12115;DHT22;6121;49.810;6.418;2022-09-03T06:51:05;18.00;99.90
12115;DHT22;6121;49.810;6.418;2022-09-03T06:53:33;17.90;99.90
12115;DHT22;6121;49.810;6.418;2022-09-03T06:56:07;18.00;99.90
12115;DHT22;6121;49.810;6.418;2022-09-03T06:58:35;18.10;99.90
12115;DHT22;6121;49.810;6.418;2022-09-03T07:01:07;18.00;99.90
12115;DHT22;6121;49.810;6.418;2022-09-03T07:03:34;18.00;99.90
12115;DHT22;6121;49.810;6.418;2022-09-03T07:06:17;18.10;99.90
12115;DHT22;6121;49.810;6.418;2022-09-03T07:08:44;17.90;99.90
12115;DHT22;6121;49.810;6.418;2022-09-03T07:11:21;18.10;99.90
12115;DHT22;6121;49.810;6.418;2022-09-03T07:13:51;18.00;99.90
12115;DHT22;6121;49.810;6.418;2022-09-03T07:16:20;18.20;99.90
12115;DHT22;6121;49.810;6.418;2022-09-03T07:18:47;18.30;99.90
12115;DHT22;6121;49.810;6.418;2022-09-03T07:21:15;18.40;99.90
12115;DHT22;6121;49.810;6.418;2022-09-03T07:23:42;18.20;99.90
12115;DHT22;6121;49.810;6.418;2022-09-03T07:26:11;18.30;99.90
12115;DHT22;6121;49.810;6.418;2022-09-03T07:28:38;18.10;99.90
12115;DHT22;6121;49.810;6.418;2022-09-03T07:31:10;18.10;99.90
12115;DHT22;6121;49.810;6.418;2022-09-03T07:33:37;18.00;99.90
12115;DHT22;6121;49.810;6.418;2022-09-03T07:36:12;17.90;99.90
12115;DHT22;6121;49.810;6.418;2022-09-03T07:38:39;17.90;99.90
12115;DHT22;6121;49.810;6.418;2022-09-03T07:41:06;17.90;99.90
12115;DHT22;6121;49.810;6.418;2022-09-03T07:43:51;18.00;99.90
12115;DHT22;6121;49.810;6.418;2022-09-03T07:46:21;18.20;99.90
12115;DHT22;6121;49.810;6.418;2022-09-03T07:48:56;18.30;99.90
12115;DHT22;6121;49.810;6.418;2022-09-03T07:51:25;18.30;99.90
12115;DHT22;6121;49.810;6.418;2022-09-03T07:53:56;18.40;99.90
12115;DHT22;6121;49.810;6.418;2022-09-03T07:56:25;18.50;99.90
12115;DHT22;6121;49.810;6.418;2022-09-03T07:58:51;18.70;99.90
12115;DHT22;6121;49.810;6.418;2022-09-03T08:01:20;19.00;99.90
12115;DHT22;6121;49.810;6.418;2022-09-03T08:03:48;19.40;99.90
12115;DHT22;6121;49.810;6.418;2022-09-03T08:06:16;19.60;99.90
12115;DHT22;6121;49.810;6.418;2022-09-03T08:08:42;19.90;99.90
12115;DHT22;6121;49.810;6.418;2022-09-03T08:11:11;20.30;99.90
12115;DHT22;6121;49.810;6.418;2022-09-03T08:13:39;20.60;99.90
12115;DHT22;6121;49.810;6.418;2022-09-03T08:16:06;21.00;99.90
12115;DHT22;6121;49.810;6.418;2022-09-03T08:18:33;21.30;99.90
12115;DHT22;6121;49.810;6.418;2022-09-03T08:21:13;21.60;99.90
12115;DHT22;6121;49.810;6.418;2022-09-03T08:23:42;21.70;99.90
12115;DHT22;6121;49.810;6.418;2022-09-03T08:26:09;21.80;99.50
12115;DHT22;6121;49.810;6.418;2022-09-03T08:28:36;21.60;99.90
12115;DHT22;6121;49.810;6.418;2022-09-03T08:31:10;22.00;99.60
12115;DHT22;6121;49.810;6.418;2022-09-03T08:33:42;22.00;99.40
12115;DHT22;6121;49.810;6.418;2022-09-03T08:36:11;22.40;99.00
12115;DHT22;6121;49.810;6.418;2022-09-03T08:38:41;22.60;98.80
12115;DHT22;6121;49.810;6.418;2022-09-03T08:44:08;22.40;99.50
12115;DHT22;6121;49.810;6.418;2022-09-03T08:49:13;22.40;99.90
12115;DHT22;6121;49.810;6.418;2022-09-03T08:51:42;22.80;99.90
12115;DHT22;6121;49.810;6.418;2022-09-03T08:54:09;23.00;99.90
12115;DHT22;6121;49.810;6.418;2022-09-03T08:56:38;23.20;99.90
12115;DHT22;6121;49.810;6.418;2022-09-03T08:59:05;23.00;99.90
12115;DHT22;6121;49.810;6.418;2022-09-03T09:01:44;24.00;99.90
12115;DHT22;6121;49.810;6.418;2022-09-03T09:04:39;24.10;99.10
12115;DHT22;6121;49.810;6.418;2022-09-03T09:07:26;24.00;99.70
12115;DHT22;6121;49.810;6.418;2022-09-03T09:10:19;24.40;99.50
12115;DHT22;6121;49.810;6.418;2022-09-03T09:13:05;24.70;98.60
12115;DHT22;6121;49.810;6.418;2022-09-03T09:15:53;25.00;98.30
12115;DHT22;6121;49.810;6.418;2022-09-03T09:21:27;25.50;98.30
12115;DHT22;6121;49.810;6.418;2022-09-03T09:23:58;25.90;97.50
12115;DHT22;6121;49.810;6.418;2022-09-03T09:26:26;25.90;97.10
12115;DHT22;6121;49.810;6.418;2022-09-03T09:29:01;25.70;97.20
12115;DHT22;6121;49.810;6.418;2022-09-03T09:31:28;25.30;97.40
12115;DHT22;6121;49.810;6.418;2022-09-03T09:34:06;25.10;97.80
12115;DHT22;6121;49.810;6.418;2022-09-03T09:36:54;25.10;97.80
12115;DHT22;6121;49.810;6.418;2022-09-03T09:39:20;25.40;98.00
12115;DHT22;6121;49.810;6.418;2022-09-03T09:42:06;25.50;97.50
12115;DHT22;6121;49.810;6.418;2022-09-03T09:44:35;25.30;97.30
12115;DHT22;6121;49.810;6.418;2022-09-03T09:47:13;24.80;97.70
12115;DHT22;6121;49.810;6.418;2022-09-03T09:49:56;24.80;98.00
12115;DHT22;6121;49.810;6.418;2022-09-03T09:52:24;24.80;98.00
12115;DHT22;6121;49.810;6.418;2022-09-03T09:54:53;24.80;97.90
12115;DHT22;6121;49.810;6.418;2022-09-03T09:57:31;24.90;98.00
12115;DHT22;6121;49.810;6.418;2022-09-03T10:00:11;24.80;97.80
12115;DHT22;6121;49.810;6.418;2022-09-03T10:02:39;24.20;98.40
12115;DHT22;6121;49.810;6.418;2022-09-03T10:05:27;24.60;98.40
12115;DHT22;6121;49.810;6.418;2022-09-03T10:08:19;24.80;98.00
12115;DHT22;6121;49.810;6.418;2022-09-03T10:10:48;25.40;97.80
12115;DHT22;6121;49.810;6.418;2022-09-03T10:13:25;25.40;97.40
12115;DHT22;6121;49.810;6.418;2022-09-03T10:16:04;26.00;97.50
12115;DHT22;6121;49.810;6.418;2022-09-03T10:18:38;27.30;95.70
12115;DHT22;6121;49.810;6.418;2022-09-03T10:26:30;30.90;88.60
12115;DHT22;6121;49.810;6.418;2022-09-03T10:29:00;37.30;75.40
12115;DHT22;6121;49.810;6.418;2022-09-03T10:34:26;31.10;79.10
12115;DHT22;6121;49.810;6.418;2022-09-03T10:37:46;33.90;80.70
12115;DHT22;6121;49.810;6.418;2022-09-03T10:43:18;36.10;60.70
12115;DHT22;6121;49.810;6.418;2022-09-03T10:46:02;35.20;66.50
12115;DHT22;6121;49.810;6.418;2022-09-03T10:51:40;35.00;59.70
12115;DHT22;6121;49.810;6.418;2022-09-03T10:54:25;37.50;60.40
12115;DHT22;6121;49.810;6.418;2022-09-03T10:57:31;44.50;54.00
12115;DHT22;6121;49.810;6.418;2022-09-03T11:00:08;42.80;49.20
12115;DHT22;6121;49.810;6.418;2022-09-03T11:06:02;35.10;58.00
12115;DHT22;6121;49.810;6.418;2022-09-03T11:08:39;33.20;61.80
12115;DHT22;6121;49.810;6.418;2022-09-03T11:16:53;30.70;66.60
12115;DHT22;6121;49.810;6.418;2022-09-03T11:19:33;29.40;68.90
12115;DHT22;6121;49.810;6.418;2022-09-03T11:21:59;28.60;71.60
12115;DHT22;6121;49.810;6.418;2022-09-03T11:24:27;28.20;73.30
12115;DHT22;6121;49.810;6.418;2022-09-03T11:32:26;26.90;77.90
12115;DHT22;6121;49.810;6.418;2022-09-03T11:34:54;26.70;78.70
12115;DHT22;6121;49.810;6.418;2022-09-03T11:37:25;26.80;79.30
12115;DHT22;6121;49.810;6.418;2022-09-03T11:39:58;27.30;78.70
12115;DHT22;6121;49.810;6.418;2022-09-03T11:42:34;27.80;78.30
12115;DHT22;6121;49.810;6.418;2022-09-03T11:47:47;28.60;77.40
12115;DHT22;6121;49.810;6.418;2022-09-03T11:50:28;29.00;77.00
12115;DHT22;6121;49.810;6.418;2022-09-03T11:55:43;29.00;75.60
12115;DHT22;6121;49.810;6.418;2022-09-03T11:58:40;28.50;77.40
12115;DHT22;6121;49.810;6.418;2022-09-03T12:01:10;28.50;78.60
12115;DHT22;6121;49.810;6.418;2022-09-03T12:03:51;28.20;78.20
12115;DHT22;6121;49.810;6.418;2022-09-03T12:09:57;27.60;76.20
12115;DHT22;6121;49.810;6.418;2022-09-03T12:12:13;27.20;76.60
12115;DHT22;6121;49.810;6.418;2022-09-03T12:15:01;26.70;78.30
12115;DHT22;6121;49.810;6.418;2022-09-03T12:17:36;26.20;80.80
12115;DHT22;6121;49.810;6.418;2022-09-03T12:20:13;25.90;82.10
12115;DHT22;6121;49.810;6.418;2022-09-03T12:22:40;25.50;83.30
12115;DHT22;6121;49.810;6.418;2022-09-03T12:25:12;25.30;87.60
12115;DHT22;6121;49.810;6.418;2022-09-03T12:27:37;25.20;90.40
12115;DHT22;6121;49.810;6.418;2022-09-03T12:30:14;24.90;91.70
12115;DHT22;6121;49.810;6.418;2022-09-03T12:32:41;24.70;93.00
12115;DHT22;6121;49.810;6.418;2022-09-03T12:35:25;24.70;94.00
12115;DHT22;6121;49.810;6.418;2022-09-03T12:37:53;24.70;95.20
12115;DHT22;6121;49.810;6.418;2022-09-03T12:40:29;24.60;96.50
12115;DHT22;6121;49.810;6.418;2022-09-03T12:42:59;24.60;97.80
12115;DHT22;6121;49.810;6.418;2022-09-03T12:45:42;24.60;98.20
12115;DHT22;6121;49.810;6.418;2022-09-03T12:48:16;24.10;98.50
12115;DHT22;6121;49.810;6.418;2022-09-03T12:50:43;23.90;99.20
12115;DHT22;6121;49.810;6.418;2022-09-03T12:53:21;23.70;99.90
12115;DHT22;6121;49.810;6.418;2022-09-03T12:55:53;23.80;99.90
12115;DHT22;6121;49.810;6.418;2022-09-03T13:00:51;23.70;99.90
12115;DHT22;6121;49.810;6.418;2022-09-03T13:03:43;23.60;99.90
12115;DHT22;6121;49.810;6.418;2022-09-03T13:06:18;23.60;99.90
12115;DHT22;6121;49.810;6.418;2022-09-03T13:11:20;23.30;99.90
12115;DHT22;6121;49.810;6.418;2022-09-03T13:14:07;23.40;99.90
12115;DHT22;6121;49.810;6.418;2022-09-03T13:25:02;22.80;99.90
12115;DHT22;6121;49.810;6.418;2022-09-03T13:27:57;22.70;99.90
12115;DHT22;6121;49.810;6.418;2022-09-03T13:30:47;22.80;99.90
12115;DHT22;6121;49.810;6.418;2022-09-03T13:33:37;22.60;99.90
12115;DHT22;6121;49.810;6.418;2022-09-03T13:39:05;22.90;99.90
12115;DHT22;6121;49.810;6.418;2022-09-03T13:44:02;22.90;99.90
12115;DHT22;6121;49.810;6.418;2022-09-03T13:46:55;22.60;99.90
12115;DHT22;6121;49.810;6.418;2022-09-03T13:52:20;22.40;99.90
12115;DHT22;6121;49.810;6.418;2022-09-03T13:54:53;22.20;99.90
12115;DHT22;6121;49.810;6.418;2022-09-03T13:57:37;22.30;99.90
12115;DHT22;6121;49.810;6.418;2022-09-03T14:00:12;22.20;99.90
12115;DHT22;6121;49.810;6.418;2022-09-03T14:02:49;22.20;99.90
12115;DHT22;6121;49.810;6.418;2022-09-03T14:08:18;21.90;99.90
12115;DHT22;6121;49.810;6.418;2022-09-03T14:16:23;22.50;99.90
12115;DHT22;6121;49.810;6.418;2022-09-03T14:19:08;22.70;99.90
12115;DHT22;6121;49.810;6.418;2022-09-03T14:22:04;22.70;99.90
12115;DHT22;6121;49.810;6.418;2022-09-03T14:24:59;22.80;99.90
12115;DHT22;6121;49.810;6.418;2022-09-03T14:27:28;22.80;99.90
12115;DHT22;6121;49.810;6.418;2022-09-03T14:33:03;22.60;99.90
12115;DHT22;6121;49.810;6.418;2022-09-03T14:35:43;22.50;99.90
12115;DHT22;6121;49.810;6.418;2022-09-03T14:41:21;22.40;99.90
12115;DHT22;6121;49.810;6.418;2022-09-03T15:00:20;23.10;99.90
12115;DHT22;6121;49.810;6.418;2022-09-03T15:11:00;23.20;99.90
12115;DHT22;6121;49.810;6.418;2022-09-03T15:30:12;23.30;99.90
12115;DHT22;6121;49.810;6.418;2022-09-03T15:35:55;23.70;99.90
12115;DHT22;6121;49.810;6.418;2022-09-03T15:40:59;23.60;99.90
12115;DHT22;6121;49.810;6.418;2022-09-03T15:43:30;23.70;99.90
12115;DHT22;6121;49.810;6.418;2022-09-03T15:46:11;23.70;99.90
12115;DHT22;6121;49.810;6.418;2022-09-03T15:48:50;23.60;99.90
12115;DHT22;6121;49.810;6.418;2022-09-03T15:52:01;23.60;99.90
12115;DHT22;6121;49.810;6.418;2022-09-03T16:00:47;23.80;99.90
12115;DHT22;6121;49.810;6.418;2022-09-03T16:03:16;23.90;99.90
12115;DHT22;6121;49.810;6.418;2022-09-03T16:05:59;24.00;99.90
12115;DHT22;6121;49.810;6.418;2022-09-03T16:08:40;23.90;99.90
12115;DHT22;6121;49.810;6.418;2022-09-03T16:11:15;24.10;99.90
12115;DHT22;6121;49.810;6.418;2022-09-03T16:14:02;24.10;99.90
12115;DHT22;6121;49.810;6.418;2022-09-03T16:17:07;23.90;99.90
12115;DHT22;6121;49.810;6.418;2022-09-03T16:19:36;23.80;99.90
12115;DHT22;6121;49.810;6.418;2022-09-03T16:22:33;23.80;99.90
12115;DHT22;6121;49.810;6.418;2022-09-03T16:25:31;23.70;99.90
12115;DHT22;6121;49.810;6.418;2022-09-03T16:28:16;23.80;99.90
12115;DHT22;6121;49.810;6.418;2022-09-03T16:42:52;23.50;99.90
12115;DHT22;6121;49.810;6.418;2022-09-03T16:48:26;23.40;99.90
12115;DHT22;6121;49.810;6.418;2022-09-03T16:51:26;23.40;99.90
12115;DHT22;6121;49.810;6.418;2022-09-03T16:54:31;23.30;99.90
12115;DHT22;6121;49.810;6.418;2022-09-03T17:00:14;23.20;99.90
12115;DHT22;6121;49.810;6.418;2022-09-03T17:06:20;23.20;99.90
12115;DHT22;6121;49.810;6.418;2022-09-03T17:08:58;23.20;99.90
12115;DHT22;6121;49.810;6.418;2022-09-03T17:11:38;23.30;99.90
12115;DHT22;6121;49.810;6.418;2022-09-03T17:25:39;23.00;99.90
12115;DHT22;6121;49.810;6.418;2022-09-03T17:37:24;22.80;99.90
12115;DHT22;6121;49.810;6.418;2022-09-03T17:40:00;22.70;99.90
12115;DHT22;6121;49.810;6.418;2022-09-03T17:48:07;22.60;99.90
12115;DHT22;6121;49.810;6.418;2022-09-03T17:53:59;22.40;99.90
12115;DHT22;6121;49.810;6.418;2022-09-03T17:59:14;22.10;99.90
12115;DHT22;6121;49.810;6.418;2022-09-03T18:02:01;22.00;99.90
12115;DHT22;6121;49.810;6.418;2022-09-03T18:07:11;21.60;99.90
12115;DHT22;6121;49.810;6.418;2022-09-03T18:09:41;21.50;99.90
12115;DHT22;6121;49.810;6.418;2022-09-03T18:12:37;21.70;99.90
12115;DHT22;6121;49.810;6.418;2022-09-03T18:15:17;21.70;99.90
12115;DHT22;6121;49.810;6.418;2022-09-03T18:17:52;21.60;99.90
12115;DHT22;6121;49.810;6.418;2022-09-03T18:20:20;21.40;99.90
12115;DHT22;6121;49.810;6.418;2022-09-03T18:23:22;21.50;99.90
12115;DHT22;6121;49.810;6.418;2022-09-03T18:26:14;21.40;99.90
12115;DHT22;6121;49.810;6.418;2022-09-03T18:29:02;21.30;99.90
12115;DHT22;6121;49.810;6.418;2022-09-03T18:31:47;21.20;99.90
12115;DHT22;6121;49.810;6.418;2022-09-03T18:34:33;21.30;99.90
12115;DHT22;6121;49.810;6.418;2022-09-03T18:37:23;21.10;99.90
12115;DHT22;6121;49.810;6.418;2022-09-03T18:40:10;21.10;99.90
12115;DHT22;6121;49.810;6.418;2022-09-03T18:46:03;21.10;99.90
12115;DHT22;6121;49.810;6.418;2022-09-03T18:49:24;21.10;99.90
12115;DHT22;6121;49.810;6.418;2022-09-03T18:52:20;21.20;99.90
12115;DHT22;6121;49.810;6.418;2022-09-03T19:01:34;21.10;99.90
12115;DHT22;6121;49.810;6.418;2022-09-03T19:10:25;20.90;99.90
12115;DHT22;6121;49.810;6.418;2022-09-03T19:13:32;20.80;99.90
12115;DHT22;6121;49.810;6.418;2022-09-03T19:22:28;21.10;99.90
12115;DHT22;6121;49.810;6.418;2022-09-03T19:25:15;21.00;99.90
12115;DHT22;6121;49.810;6.418;2022-09-03T19:30:57;20.60;99.90
12115;DHT22;6121;49.810;6.418;2022-09-03T19:39:54;20.30;99.90
12115;DHT22;6121;49.810;6.418;2022-09-03T19:46:05;20.40;99.90
12115;DHT22;6121;49.810;6.418;2022-09-03T19:54:53;20.50;99.90
12115;DHT22;6121;49.810;6.418;2022-09-03T19:57:40;20.50;99.90
12115;DHT22;6121;49.810;6.418;2022-09-03T20:00:24;20.40;99.90
12115;DHT22;6121;49.810;6.418;2022-09-03T20:03:12;20.40;99.90
12115;DHT22;6121;49.810;6.418;2022-09-03T20:05:58;20.30;99.90
12115;DHT22;6121;49.810;6.418;2022-09-03T20:08:43;20.00;99.90
12115;DHT22;6121;49.810;6.418;2022-09-03T20:11:29;19.80;99.90
12115;DHT22;6121;49.810;6.418;2022-09-03T20:13:57;19.90;99.90
12115;DHT22;6121;49.810;6.418;2022-09-03T20:19:36;20.10;99.90
12115;DHT22;6121;49.810;6.418;2022-09-03T20:31:22;19.90;99.90
12115;DHT22;6121;49.810;6.418;2022-09-03T20:34:01;19.90;99.90
12115;DHT22;6121;49.810;6.418;2022-09-03T20:42:50;19.80;99.90
12115;DHT22;6121;49.810;6.418;2022-09-03T20:45:25;19.80;99.90
12115;DHT22;6121;49.810;6.418;2022-09-03T20:50:46;19.80;99.90
12115;DHT22;6121;49.810;6.418;2022-09-03T20:56:16;19.60;99.90
12115;DHT22;6121;49.810;6.418;2022-09-03T21:01:36;19.40;99.90
12115;DHT22;6121;49.810;6.418;2022-09-03T21:04:34;19.40;99.90
12115;DHT22;6121;49.810;6.418;2022-09-03T21:12:38;19.60;99.90
12115;DHT22;6121;49.810;6.418;2022-09-03T21:15:34;19.30;99.90
12115;DHT22;6121;49.810;6.418;2022-09-03T21:26:35;18.90;99.90
12115;DHT22;6121;49.810;6.418;2022-09-03T21:29:17;18.90;99.90
12115;DHT22;6121;49.810;6.418;2022-09-03T21:34:42;19.00;99.90
12115;DHT22;6121;49.810;6.418;2022-09-03T21:37:10;19.00;99.90
12115;DHT22;6121;49.810;6.418;2022-09-03T21:39:43;18.90;99.90
12115;DHT22;6121;49.810;6.418;2022-09-03T21:42:43;18.90;99.90
12115;DHT22;6121;49.810;6.418;2022-09-03T21:45:33;19.00;99.90
12115;DHT22;6121;49.810;6.418;2022-09-03T21:48:06;19.00;99.90
12115;DHT22;6121;49.810;6.418;2022-09-03T21:50:57;18.90;99.90
12115;DHT22;6121;49.810;6.418;2022-09-03T21:53:47;18.90;99.90
12115;DHT22;6121;49.810;6.418;2022-09-03T22:02:23;18.30;99.90